Time;durP1;ratioP1;P1;durP2;ratioP2;P2;SDS_P1;SDS_P2;PMS_P1;PMS_P2;Temp;Humidity;BMP_temperature;BMP_pressure;BME280_temperature;BME280_humidity;BME280_pressure;Samples;Min_cycle;Max_cycle;Signal;HPM_P1;HPM_P2
2021/01/31 13:22:04;;;;;;;1999.90;999.90;;;;;;;;;;5090945;28;21092;-76
2021/01/31 13:24:30;;;;;;;229.75;218.32;;;;;;;;;;5090905;28;20172;-76
2021/01/31 13:26:56;;;;;;;1999.90;999.90;;;;;;;;;;5090862;28;20168;-76
2021/01/31 13:29:22;;;;;;;259.95;247.00;;;;;;;;;;5090700;28;20191;-77
2021/01/31 13:31:48;;;;;;;264.15;250.93;;;;;;;;;;5090772;28;20243;-77
2021/01/31 13:34:15;;;;;;;225.10;212.85;;;;;;;;;;5090704;28;20222;-77
2021/01/31 13:36:41;;;;;;;224.52;212.52;;;;;;;;;;5089293;28;20286;-77
2021/01/31 13:39:07;;;;;;;197.35;187.88;;;;;;;;;;5089310;28;20571;-77
2021/01/31 13:41:34;;;;;;;177.13;168.25;;;;;;;;;;5090517;28;20206;-77
2021/01/31 13:44:00;;;;;;;160.93;153.23;;;;;;;;;;5090470;28;20167;-77
2021/01/31 13:46:26;;;;;;;145.98;139.15;;;;;;;;;;5090469;28;20172;-77
2021/01/31 13:48:52;;;;;;;116.85;111.55;;;;;;;;;;5090454;28;20168;-77
2021/01/31 13:51:18;;;;;;;144.52;137.80;;;;;;;;;;5088887;28;20176;-77
2021/01/31 13:53:44;;;;;;;124.88;119.18;;;;;;;;;;5090224;28;20192;-77
2021/01/31 13:56:11;;;;;;;104.72;100.03;;;;;;;;;;5090171;28;20171;-77
2021/01/31 13:58:37;;;;;;;133.40;127.32;;;;;;;;;;5090104;28;20180;-77
2021/01/31 14:01:03;;;;;;;375.15;356.35;;;;;;;;;;5090004;28;20274;-77
2021/01/31 14:03:29;;;;;;;353.20;335.58;;;;;;;;;;5090031;28;20168;-77
2021/01/31 14:05:55;;;;;;;436.48;413.20;;;;;;;;;;5089930;28;20229;-77
2021/01/31 14:08:21;;;;;;;369.52;350.63;;;;;;;;;;5089955;28;20171;-77
2021/01/31 14:10:47;;;;;;;395.58;375.15;;;;;;;;;;5089738;28;20176;-78
2021/01/31 14:13:13;;;;;;;335.25;318.65;;;;;;;;;;5089749;28;20242;-78
2021/01/31 14:15:39;;;;;;;355.10;337.30;;;;;;;;;;5089955;28;20621;-78
2021/01/31 14:18:05;;;;;;;348.65;331.00;;;;;;;;;;5089665;28;20199;-78
2021/01/31 14:20:31;;;;;;;254.48;242.27;;;;;;;;;;5089426;28;20669;-78
2021/01/31 14:22:57;;;;;;;295.98;281.55;;;;;;;;;;5088343;28;20171;-78
2021/01/31 14:25:26;;;;;;;337.05;320.50;;;;;;;;;;5089572;28;20164;-78
2021/01/31 14:27:52;;;;;;;335.17;318.67;;;;;;;;;;5089494;28;20633;-78
2021/01/31 14:30:19;;;;;;;299.77;285.38;;;;;;;;;;5089481;28;20180;-78
2021/01/31 14:32:45;;;;;;;290.63;276.75;;;;;;;;;;5078607;28;20321;-78
2021/01/31 14:35:18;;;;;;;254.30;242.23;;;;;;;;;;5075850;28;20183;-78
2021/01/31 14:37:44;;;;;;;275.58;262.52;;;;;;;;;;5075844;28;20683;-78
2021/01/31 14:40:11;;;;;;;284.52;270.77;;;;;;;;;;5074441;28;20176;-78
2021/01/31 14:42:38;;;;;;;327.95;311.67;;;;;;;;;;5075770;28;20200;-78
2021/01/31 14:45:07;;;;;;;330.63;314.35;;;;;;;;;;5075705;28;20206;-78
2021/01/31 14:47:33;;;;;;;360.38;341.95;;;;;;;;;;5075647;28;20172;-78
2021/01/31 14:49:59;;;;;;;305.80;290.83;;;;;;;;;;5074273;28;20204;-78
2021/01/31 14:52:25;;;;;;;389.52;369.13;;;;;;;;;;5075622;28;20218;-78
2021/01/31 14:54:51;;;;;;;433.25;409.63;;;;;;;;;;5074156;28;20172;-78
2021/01/31 14:57:17;;;;;;;415.80;393.23;;;;;;;;;;5075513;28;20168;-77
2021/01/31 14:59:43;;;;;;;399.10;378.05;;;;;;;;;;5075454;28;20164;-77
2021/01/31 15:02:09;;;;;;;420.02;397.60;;;;;;;;;;5075463;28;20515;-77
2021/01/31 15:04:40;;;;;;;443.45;419.15;;;;;;;;;;5075365;28;20251;-77
2021/01/31 15:07:06;;;;;;;389.30;368.13;;;;;;;;;;5075339;28;20169;-77
2021/01/31 15:09:32;;;;;;;492.75;464.10;;;;;;;;;;5075191;28;20179;-77
2021/01/31 15:11:59;;;;;;;403.20;381.88;;;;;;;;;;5073884;28;20257;-77
2021/01/31 15:14:25;;;;;;;484.10;456.25;;;;;;;;;;5075157;28;20165;-77
2021/01/31 15:16:51;;;;;;;507.15;477.52;;;;;;;;;;5075159;28;20247;-77
2021/01/31 15:19:17;;;;;;;483.77;455.95;;;;;;;;;;5075054;28;20218;-77
2021/01/31 15:21:43;;;;;;;501.40;471.88;;;;;;;;;;5074881;28;20231;-77
2021/01/31 15:24:09;;;;;;;480.60;453.25;;;;;;;;;;5075000;28;20234;-77
2021/01/31 15:26:36;;;;;;;466.73;439.83;;;;;;;;;;5074890;28;20645;-77
2021/01/31 15:29:03;;;;;;;503.35;473.80;;;;;;;;;;5074922;28;20176;-77
2021/01/31 15:31:29;;;;;;;472.73;445.65;;;;;;;;;;5074761;28;20192;-77
2021/01/31 15:33:54;;;;;;;464.75;438.20;;;;;;;;;;5073478;28;20180;-77
2021/01/31 15:36:21;;;;;;;457.52;431.50;;;;;;;;;;5073375;28;20187;-76
2021/01/31 15:38:47;;;;;;;461.17;434.65;;;;;;;;;;5073401;28;20176;-77
2021/01/31 15:41:13;;;;;;;560.92;527.25;;;;;;;;;;5074657;28;20168;-77
2021/01/31 15:43:39;;;;;;;452.13;425.85;;;;;;;;;;5073622;28;20675;-77
2021/01/31 15:46:05;;;;;;;445.08;419.98;;;;;;;;;;5074549;28;20226;-77
2021/01/31 15:48:31;;;;;;;1999.90;999.90;;;;;;;;;;5074538;28;20168;-77
2021/01/31 15:50:57;;;;;;;463.33;436.58;;;;;;;;;;5074361;28;20591;-77
2021/01/31 15:53:23;;;;;;;1999.90;999.90;;;;;;;;;;5074444;28;20168;-77
